createdAt,value
2022-10-03T00:00:21.628Z,10.83
2022-10-03T00:04:23.542Z,10.84
2022-10-03T00:08:05.278Z,10.82
2022-10-03T00:11:41.245Z,10.82
2022-10-03T00:15:14.967Z,10.83
2022-10-03T00:19:09.617Z,10.83
2022-10-03T00:22:44.314Z,10.85
2022-10-03T00:26:30.967Z,10.85
2022-10-03T00:30:13.375Z,10.86
2022-10-03T00:33:52.863Z,10.87
2022-10-03T00:37:36.717Z,10.90
2022-10-03T00:41:15.158Z,10.94
2022-10-03T00:44:58.956Z,10.95
2022-10-03T00:49:09.001Z,11.00
2022-10-03T00:53:04.863Z,11.03
2022-10-03T00:57:09.020Z,11.05
2022-10-03T01:00:37.874Z,11.08
2022-10-03T01:04:27.265Z,11.12
2022-10-03T01:08:21.527Z,11.13
2022-10-03T01:12:14.487Z,11.15
2022-10-03T01:15:54.199Z,11.20
2022-10-03T01:19:43.245Z,11.25
2022-10-03T01:23:41.898Z,11.29
2022-10-03T01:27:13.285Z,11.31
2022-10-03T01:30:44.688Z,11.33
2022-10-03T01:34:34.614Z,11.34
2022-10-03T01:38:21.636Z,11.32
2022-10-03T01:46:31.297Z,11.38
2022-10-03T01:50:22.770Z,11.40
2022-10-03T01:54:06.041Z,11.43
2022-10-03T01:57:42.834Z,11.43
2022-10-03T02:01:16.514Z,11.46
2022-10-03T02:04:52.962Z,11.49
2022-10-03T02:08:37.932Z,11.50
2022-10-03T02:12:14.370Z,11.50
2022-10-03T02:15:57.101Z,11.52
2022-10-03T02:19:29.575Z,11.53
2022-10-03T02:22:59.286Z,11.55
2022-10-03T02:26:59.425Z,11.60
2022-10-03T02:30:35.275Z,11.61
2022-10-03T02:34:34.121Z,11.64
2022-10-03T02:38:17.827Z,11.65
2022-10-03T02:42:25.434Z,11.66
2022-10-03T02:46:12.430Z,11.69
2022-10-03T02:50:15.752Z,11.73
2022-10-03T02:54:18.608Z,11.77
2022-10-03T02:58:18.635Z,11.83
2022-10-03T03:02:15.649Z,11.87
2022-10-03T03:06:13.256Z,11.92
2022-10-03T03:10:09.236Z,11.95
2022-10-03T03:14:02.516Z,11.97
2022-10-03T03:17:38.983Z,11.99
2022-10-03T03:21:31.476Z,12.01
2022-10-03T03:25:23.772Z,12.04
2022-10-03T03:28:58.571Z,12.05
2022-10-03T03:32:37.722Z,12.06
2022-10-03T03:36:16.940Z,12.07
2022-10-03T03:40:01.055Z,12.08
2022-10-03T03:43:50.731Z,12.10
2022-10-03T03:47:38.681Z,12.10
2022-10-03T03:51:23.188Z,12.08
2022-10-03T03:55:07.275Z,12.08
2022-10-03T03:58:42.088Z,12.08
2022-10-03T04:02:20.917Z,12.03
2022-10-03T04:06:00.867Z,11.99
2022-10-03T04:10:02.956Z,11.97
2022-10-03T04:13:43.786Z,11.95
2022-10-03T04:17:55.161Z,11.93
2022-10-03T04:21:41.736Z,11.94
2022-10-03T04:25:45.134Z,11.97
2022-10-03T04:29:32.152Z,12.00
2022-10-03T04:33:11.937Z,12.01
2022-10-03T04:37:03.092Z,12.02
2022-10-03T04:40:44.891Z,12.05
2022-10-03T04:44:26.280Z,12.08
2022-10-03T04:47:58.309Z,12.09
2022-10-03T04:51:43.232Z,12.12
2022-10-03T04:55:23.487Z,12.14
2022-10-03T04:58:57.964Z,12.13
2022-10-03T05:02:38.453Z,12.13
2022-10-03T05:06:19.682Z,12.13
2022-10-03T05:09:54.612Z,12.15
2022-10-03T05:13:35.188Z,12.14
2022-10-03T05:17:11.228Z,12.12
2022-10-03T05:20:50.399Z,12.10
2022-10-03T05:24:28.160Z,12.05
2022-10-03T05:28:03.675Z,11.99
2022-10-03T05:31:48.062Z,11.96
2022-10-03T05:35:33.333Z,11.92
2022-10-03T05:39:19.457Z,11.91
2022-10-03T05:43:07.557Z,11.92
2022-10-03T05:46:51.092Z,11.96
2022-10-03T05:50:44.493Z,11.95
2022-10-03T05:54:41.113Z,11.93
2022-10-03T05:58:54.548Z,11.98
2022-10-03T06:02:59.694Z,12.00
2022-10-03T06:06:44.426Z,12.07
2022-10-03T06:10:52.135Z,12.14
2022-10-03T06:14:35.090Z,12.16
2022-10-03T06:18:12.596Z,12.21
2022-10-03T06:22:11.577Z,12.27
2022-10-03T06:26:21.131Z,12.40
2022-10-03T06:30:12.015Z,12.56
2022-10-03T06:34:08.512Z,12.67
2022-10-03T06:38:10.264Z,12.82
2022-10-03T06:42:17.544Z,12.94
2022-10-03T06:46:19.642Z,13.09
2022-10-03T06:50:30.961Z,13.15
2022-10-03T06:54:23.664Z,13.19
2022-10-03T06:58:15.520Z,13.19
2022-10-03T07:02:15.177Z,13.18
2022-10-03T07:06:05.085Z,13.13
2022-10-03T07:10:14.478Z,13.09
2022-10-03T07:14:11.110Z,13.06
2022-10-03T07:18:11.742Z,13.07
2022-10-03T07:22:21.475Z,13.09
2022-10-03T07:26:26.573Z,13.12
2022-10-03T07:30:15.801Z,13.21
2022-10-03T07:34:11.529Z,13.25
2022-10-03T07:38:14.358Z,13.29
2022-10-03T07:42:02.159Z,13.34
2022-10-03T07:46:02.171Z,13.41
2022-10-03T07:49:54.985Z,13.44
2022-10-03T07:53:43.668Z,13.48
2022-10-03T07:57:55.179Z,13.55
2022-10-03T08:01:47.850Z,13.59
2022-10-03T08:05:30.499Z,13.68
2022-10-03T08:09:24.038Z,13.74
2022-10-03T08:13:14.200Z,13.77
2022-10-03T08:17:03.565Z,13.78
2022-10-03T08:20:45.610Z,13.82
2022-10-03T08:24:25.845Z,13.86
2022-10-03T08:28:19.913Z,13.93
2022-10-03T08:31:54.809Z,13.93
2022-10-03T08:35:32.268Z,13.90
2022-10-03T08:39:27.580Z,13.85
2022-10-03T08:43:28.958Z,13.85
2022-10-03T08:47:16.991Z,13.91
2022-10-03T08:51:13.256Z,13.98
2022-10-03T08:55:13.060Z,14.10
2022-10-03T08:59:18.401Z,14.19
2022-10-03T09:03:35.290Z,14.22
2022-10-03T09:07:29.296Z,14.21
2022-10-03T09:11:36.956Z,14.22
2022-10-03T09:15:26.376Z,14.24
2022-10-03T09:19:17.006Z,14.21
2022-10-03T09:23:12.557Z,14.16
2022-10-03T09:27:09.359Z,14.05
2022-10-03T09:30:50.577Z,13.96
2022-10-03T09:34:51.387Z,13.94
2022-10-03T09:38:46.227Z,13.95
2022-10-03T09:42:57.858Z,14.00
2022-10-03T09:47:11.563Z,14.02
2022-10-03T09:51:03.541Z,14.00
2022-10-03T09:55:04.651Z,13.97
2022-10-03T09:58:56.472Z,13.87
2022-10-03T10:02:54.874Z,13.75
2022-10-03T10:07:00.525Z,13.74
2022-10-03T10:11:21.204Z,13.71
2022-10-03T10:15:12.522Z,13.84
2022-10-03T10:19:02.755Z,14.09
2022-10-03T10:23:05.822Z,14.25
2022-10-03T10:27:11.683Z,14.46
2022-10-03T10:31:20.064Z,14.70
2022-10-03T10:35:28.694Z,14.72
2022-10-03T10:39:41.827Z,14.86
2022-10-03T10:43:52.809Z,14.89
2022-10-03T10:47:59.604Z,14.89
2022-10-03T10:52:12.213Z,14.96
2022-10-03T10:56:09.232Z,14.99
2022-10-03T11:00:08.124Z,15.02
2022-10-03T11:04:21.994Z,15.04
2022-10-03T11:08:31.834Z,15.16
2022-10-03T11:12:44.459Z,15.34
2022-10-03T11:17:04.746Z,15.46
2022-10-03T11:21:05.609Z,15.60
2022-10-03T11:25:13.211Z,15.82
2022-10-03T11:29:31.673Z,15.98
2022-10-03T11:33:43.430Z,16.11
2022-10-03T11:37:26.675Z,16.15
2022-10-03T11:41:06.014Z,16.21
2022-10-03T11:44:35.923Z,16.38
2022-10-03T11:48:21.918Z,16.63
2022-10-03T11:52:03.791Z,16.84
2022-10-03T11:55:39.578Z,17.07
2022-10-03T11:59:27.052Z,17.22
2022-10-03T12:03:13.956Z,17.20
2022-10-03T12:07:17.649Z,17.12
2022-10-03T12:10:58.095Z,16.99
2022-10-03T12:14:33.202Z,16.75
2022-10-03T12:18:07.127Z,16.59
2022-10-03T12:21:44.221Z,16.41
2022-10-03T12:25:24.141Z,16.13
2022-10-03T12:28:57.812Z,15.82
2022-10-03T12:32:34.069Z,15.66
2022-10-03T12:36:10.763Z,15.45
2022-10-03T12:39:48.003Z,15.36
2022-10-03T12:43:38.232Z,15.26
2022-10-03T12:47:37.664Z,15.17
2022-10-03T12:51:22.148Z,15.05
2022-10-03T12:54:57.575Z,14.96
2022-10-03T12:58:32.226Z,14.98
2022-10-03T13:02:25.726Z,15.14
2022-10-03T13:06:17.954Z,15.33
2022-10-03T13:10:01.974Z,15.70
2022-10-03T13:13:52.278Z,16.09
2022-10-03T13:17:30.797Z,16.36
2022-10-03T13:21:26.669Z,16.36
2022-10-03T13:25:06.324Z,16.23
2022-10-03T13:28:39.941Z,16.11
2022-10-03T13:32:16.565Z,16.11
2022-10-03T13:36:02.983Z,16.38
2022-10-03T13:39:39.887Z,16.66
2022-10-03T13:43:15.811Z,16.95
2022-10-03T13:46:53.903Z,17.24
2022-10-03T13:50:27.197Z,17.37
2022-10-03T13:54:02.326Z,17.23
2022-10-03T13:57:34.887Z,17.07
2022-10-03T14:01:14.980Z,17.11
2022-10-03T14:04:56.581Z,16.99
2022-10-03T14:08:45.079Z,16.86
2022-10-03T14:12:38.205Z,16.68
2022-10-03T14:16:22.311Z,16.37
2022-10-03T14:20:06.788Z,16.10
2022-10-03T14:23:39.401Z,15.92
2022-10-03T14:27:18.634Z,15.80
2022-10-03T14:31:06.310Z,15.73
2022-10-03T14:34:56.290Z,15.66
2022-10-03T14:39:05.829Z,15.59
2022-10-03T14:42:59.240Z,15.53
2022-10-03T14:46:34.341Z,15.46
2022-10-03T14:50:04.808Z,15.41
2022-10-03T14:53:35.207Z,15.35
2022-10-03T14:57:34.864Z,15.27
2022-10-03T15:01:19.612Z,15.17
2022-10-03T15:04:48.394Z,15.10
2022-10-03T15:08:20.951Z,15.05
2022-10-03T15:11:55.864Z,15.00
2022-10-03T15:15:30.335Z,14.95
2022-10-03T15:19:06.988Z,14.88
2022-10-03T15:22:39.879Z,14.80
2022-10-03T15:26:18.716Z,14.74
2022-10-03T15:29:48.431Z,14.68
2022-10-03T15:33:23.005Z,14.64
2022-10-03T15:36:56.432Z,14.60
2022-10-03T15:40:39.537Z,14.57
2022-10-03T15:44:16.715Z,14.50
2022-10-03T15:47:48.466Z,14.48
2022-10-03T15:51:23.309Z,14.45
2022-10-03T15:55:10.985Z,14.44
2022-10-03T15:58:40.979Z,14.41
2022-10-03T16:02:19.341Z,14.35
2022-10-03T16:06:03.751Z,14.29
2022-10-03T16:09:42.056Z,14.22
2022-10-03T16:13:26.949Z,14.19
2022-10-03T16:16:58.293Z,14.13
2022-10-03T16:20:31.074Z,14.05
2022-10-03T16:24:02.980Z,13.99
2022-10-03T16:27:35.880Z,13.93
2022-10-03T16:31:05.222Z,13.90
2022-10-03T16:34:35.469Z,13.83
2022-10-03T16:38:04.779Z,13.80
2022-10-03T16:41:37.108Z,13.81
2022-10-03T16:45:05.472Z,13.81
2022-10-03T16:48:55.683Z,13.83
2022-10-03T16:52:30.961Z,13.82
2022-10-03T16:56:08.362Z,13.82
2022-10-03T16:59:38.636Z,13.81
2022-10-03T17:03:17.601Z,13.79
2022-10-03T17:06:50.206Z,13.76
2022-10-03T17:10:35.817Z,13.73
2022-10-03T17:14:07.093Z,13.68
2022-10-03T17:17:45.317Z,13.65
2022-10-03T17:21:24.304Z,13.61
2022-10-03T17:24:54.760Z,13.54
2022-10-03T17:28:33.122Z,13.47
2022-10-03T17:32:07.232Z,13.44
2022-10-03T17:35:44.904Z,13.41
2022-10-03T17:39:20.060Z,13.37
2022-10-03T17:42:52.969Z,13.36
2022-10-03T17:46:34.866Z,13.36
2022-10-03T17:50:18.383Z,13.33
2022-10-03T17:54:00.046Z,13.31
2022-10-03T17:57:45.268Z,13.26
2022-10-03T18:01:29.659Z,13.24
2022-10-03T18:05:20.274Z,13.19
2022-10-03T18:09:00.361Z,13.13
2022-10-03T18:12:37.780Z,13.08
2022-10-03T18:16:28.160Z,13.01
2022-10-03T18:20:22.217Z,12.89
2022-10-03T18:24:13.577Z,12.77
2022-10-03T18:28:19.347Z,12.64
2022-10-03T18:31:52.171Z,12.58
2022-10-03T18:35:25.345Z,12.53
2022-10-03T18:38:57.272Z,12.52
2022-10-03T18:42:30.214Z,12.50
2022-10-03T18:46:08.114Z,12.48
2022-10-03T18:49:42.785Z,12.47
2022-10-03T18:53:24.303Z,12.48
2022-10-03T18:57:08.738Z,12.46
2022-10-03T19:00:49.796Z,12.48
2022-10-03T19:04:22.783Z,12.49
2022-10-03T19:07:56.324Z,12.49
2022-10-03T19:11:34.072Z,12.47
2022-10-03T19:15:19.413Z,12.41
2022-10-03T19:18:58.070Z,12.34
2022-10-03T19:22:40.947Z,12.30
2022-10-03T19:26:14.345Z,12.28
2022-10-03T19:29:48.324Z,12.27
2022-10-03T19:33:17.860Z,12.28
2022-10-03T19:36:46.877Z,12.25
2022-10-03T19:40:28.058Z,12.28
2022-10-03T19:43:57.523Z,12.32
2022-10-03T19:47:31.388Z,12.33
2022-10-03T19:50:59.531Z,12.36
2022-10-03T19:54:36.500Z,12.38
2022-10-03T19:58:14.096Z,12.40
2022-10-03T20:01:48.601Z,12.42
2022-10-03T20:05:22.396Z,12.46
2022-10-03T20:08:55.187Z,12.45
2022-10-03T20:12:27.397Z,12.44
2022-10-03T20:16:00.276Z,12.40
2022-10-03T20:19:35.820Z,12.37
2022-10-03T20:23:09.385Z,12.35
2022-10-03T20:26:44.597Z,12.30
2022-10-03T20:30:27.442Z,12.27
2022-10-03T20:33:56.425Z,12.25
2022-10-03T20:37:36.974Z,12.24
2022-10-03T20:41:11.218Z,12.25
2022-10-03T20:44:49.700Z,12.26
2022-10-03T20:48:24.994Z,12.24
2022-10-03T20:52:03.596Z,12.25
2022-10-03T20:55:34.991Z,12.28
2022-10-03T20:59:08.484Z,12.30
2022-10-03T21:02:41.476Z,12.35
2022-10-03T21:06:20.535Z,12.35
2022-10-03T21:09:51.590Z,12.41
2022-10-03T21:13:21.941Z,12.46
2022-10-03T21:16:52.235Z,12.52
2022-10-03T21:20:25.047Z,12.53
2022-10-03T21:24:04.266Z,12.54
2022-10-03T21:27:35.264Z,12.51
2022-10-03T21:31:34.796Z,12.47
2022-10-03T21:35:10.646Z,12.41
2022-10-03T21:38:53.306Z,12.36
2022-10-03T21:42:30.078Z,12.33
2022-10-03T21:46:05.144Z,12.30
2022-10-03T21:49:55.244Z,12.28
2022-10-03T21:53:27.468Z,12.26
2022-10-03T21:57:06.392Z,12.25
2022-10-03T22:00:56.125Z,12.23
2022-10-03T22:04:28.985Z,12.23
2022-10-03T22:07:55.730Z,12.21
2022-10-03T22:11:36.301Z,12.20
2022-10-03T22:15:11.792Z,12.22
2022-10-03T22:19:00.664Z,12.28
2022-10-03T22:22:40.573Z,12.31
2022-10-03T22:26:19.184Z,12.34
2022-10-03T22:29:57.244Z,12.33
2022-10-03T22:33:33.225Z,12.31
2022-10-03T22:37:01.039Z,12.33
2022-10-03T22:40:30.761Z,12.33
2022-10-03T22:44:00.679Z,12.31
2022-10-03T22:47:32.603Z,12.31
2022-10-03T22:51:01.496Z,12.32
2022-10-03T22:54:36.804Z,12.30
2022-10-03T22:58:06.705Z,12.26
2022-10-03T23:01:34.751Z,12.20
2022-10-03T23:05:05.517Z,12.17
2022-10-03T23:08:45.987Z,12.14
2022-10-03T23:12:15.217Z,12.12
2022-10-03T23:15:45.382Z,12.11
2022-10-03T23:19:28.627Z,12.11
2022-10-03T23:23:00.859Z,12.13
2022-10-03T23:27:01.371Z,12.15
2022-10-03T23:30:57.337Z,12.18
2022-10-03T23:35:12.049Z,12.21
2022-10-03T23:39:03.878Z,12.23
2022-10-03T23:42:46.493Z,12.26
2022-10-03T23:46:16.896Z,12.30
2022-10-03T23:49:47.743Z,12.34
2022-10-03T23:53:30.508Z,12.41
2022-10-03T23:57:05.133Z,12.49
